Time;durP1;ratioP1;P1;durP2;ratioP2;P2;SDS_P1;SDS_P2;PMS_P1;PMS_P2;Temp;Humidity;BMP_temperature;BMP_pressure;BME280_temperature;BME280_humidity;BME280_pressure;Samples;Min_cycle;Max_cycle;Signal;HPM_P1;HPM_P2
2023/04/28 00:02:23;;;;;;;8.17;4.80;;;4.20;1.00;;;;;;6150253;23;20182;-88
2023/04/28 00:04:49;;;;;;;5.83;5.00;;;4.30;1.00;;;;;;6150251;23;20220;-87
2023/04/28 00:07:14;;;;;;;7.73;5.17;;;4.30;1.00;;;;;;6150495;23;20168;-86
2023/04/28 00:09:40;;;;;;;7.07;4.63;;;4.30;1.00;;;;;;6150180;23;20164;-88
2023/04/28 00:12:05;;;;;;;7.07;4.87;;;4.20;1.00;;;;;;6151102;23;20182;-86
2023/04/28 00:14:32;;;;;;;6.43;4.73;;;4.30;1.00;;;;;;6149632;23;21041;-87
2023/04/28 00:16:58;;;;;;;6.80;4.40;;;4.40;1.00;;;;;;6149584;23;20162;-87
2023/04/28 00:19:23;;;;;;;6.73;4.53;;;4.40;1.00;;;;;;6148322;23;20183;-87
2023/04/28 00:21:49;;;;;;;6.70;5.40;;;4.50;1.00;;;;;;6149282;23;20687;-87
2023/04/28 00:24:14;;;;;;;6.50;5.20;;;4.60;1.00;;;;;;6149235;23;20514;-86
2023/04/28 00:26:40;;;;;;;5.67;4.53;;;4.60;1.00;;;;;;6149959;23;20511;-88
2023/04/28 00:29:05;;;;;;;6.43;4.60;;;4.60;1.00;;;;;;6149448;23;20164;-88
2023/04/28 00:31:31;;;;;;;6.57;5.17;;;4.60;1.00;;;;;;6151544;23;20155;-88
2023/04/28 00:33:57;;;;;;;5.77;4.43;;;4.50;1.00;;;;;;6149898;23;20675;-87
2023/04/28 00:36:22;;;;;;;8.30;5.03;;;4.40;1.00;;;;;;6149189;23;20184;-87
2023/04/28 00:38:48;;;;;;;5.03;4.47;;;4.40;1.00;;;;;;6149174;23;20159;-87
2023/04/28 00:41:14;;;;;;;5.70;4.23;;;4.30;1.00;;;;;;6149508;23;20172;-88
2023/04/28 00:43:44;;;;;;;5.73;4.70;;;4.50;1.00;;;;;;6149781;23;20176;-87
2023/04/28 00:46:16;;;;;;;5.40;4.90;;;4.60;1.00;;;;;;6174284;23;20159;-87
2023/04/28 00:48:42;;;;;;;7.50;4.80;;;4.50;1.00;;;;;;6173681;23;20158;-87
2023/04/28 00:51:07;;;;;;;8.00;5.00;;;4.30;1.00;;;;;;6149271;23;20973;-86
2023/04/28 00:53:33;;;;;;;5.93;5.33;;;4.20;1.00;;;;;;6149281;23;20873;-87
2023/04/28 00:56:00;;;;;;;7.37;5.60;;;4.30;1.00;;;;;;6149376;23;20198;-87
2023/04/28 00:58:26;;;;;;;6.07;4.63;;;4.50;1.00;;;;;;6148961;23;20194;-87
2023/04/28 01:00:51;;;;;;;5.93;4.90;;;4.60;1.00;;;;;;6151100;23;20203;-87
2023/04/28 01:03:17;;;;;;;6.10;4.80;;;4.60;1.00;;;;;;6148933;23;20183;-87
2023/04/28 01:05:42;;;;;;;7.27;5.07;;;4.60;1.00;;;;;;6149496;23;20163;-86
2023/04/28 01:08:08;;;;;;;7.73;5.27;;;4.70;1.00;;;;;;6173551;23;20160;-86
2023/04/28 01:10:34;;;;;;;5.73;4.90;;;4.60;1.00;;;;;;6149201;23;20156;-86
2023/04/28 01:12:59;;;;;;;6.13;5.53;;;4.30;1.00;;;;;;6149156;23;20189;-87
2023/04/28 01:15:26;;;;;;;8.77;5.70;;;4.40;1.00;;;;;;6149624;23;20222;-87
2023/04/28 01:17:51;;;;;;;8.57;5.50;;;4.40;1.00;;;;;;6149244;23;20159;-87
2023/04/28 01:20:17;;;;;;;7.40;5.53;;;4.30;1.00;;;;;;6148441;23;20514;-87
2023/04/28 01:22:42;;;;;;;8.63;5.20;;;4.20;1.00;;;;;;6147605;23;20176;-86
2023/04/28 01:25:08;;;;;;;7.57;5.93;;;4.30;1.00;;;;;;6147347;23;20156;-87
2023/04/28 01:27:33;;;;;;;6.07;4.83;;;4.30;1.00;;;;;;6147861;23;20202;-86
2023/04/28 01:29:59;;;;;;;7.97;5.00;;;4.30;1.00;;;;;;6149117;23;20249;-86
2023/04/28 01:32:25;;;;;;;7.43;4.77;;;4.40;1.00;;;;;;6147715;23;20648;-87
2023/04/28 01:34:50;;;;;;;6.10;4.70;;;4.40;1.00;;;;;;6147166;23;20238;-86
2023/04/28 01:37:16;;;;;;;7.33;4.80;;;4.40;1.00;;;;;;6147706;23;20170;-86
2023/04/28 01:39:41;;;;;;;7.47;4.70;;;4.60;1.00;;;;;;6147095;23;20160;-87
2023/04/28 01:42:07;;;;;;;6.00;4.20;;;4.70;1.00;;;;;;6147372;23;20595;-87
2023/04/28 01:44:33;;;;;;;5.50;4.23;;;4.80;1.00;;;;;;6147499;23;20164;-88
2023/04/28 01:46:58;;;;;;;5.90;4.17;;;4.90;1.00;;;;;;6147625;23;20167;-87
2023/04/28 01:49:24;;;;;;;7.40;4.17;;;5.00;1.00;;;;;;6147039;23;20151;-87
2023/04/28 01:51:49;;;;;;;6.03;4.17;;;5.20;1.00;;;;;;6148716;23;20198;-87
2023/04/28 01:54:15;;;;;;;5.47;3.60;;;5.30;1.00;;;;;;6147296;23;20160;-88
2023/04/28 01:56:41;;;;;;;8.00;4.27;;;5.30;1.00;;;;;;6147250;23;20215;-88
2023/04/28 01:59:06;;;;;;;5.93;3.87;;;5.40;1.00;;;;;;6147147;23;20164;-86
2023/04/28 02:01:32;;;;;;;5.13;4.00;;;5.50;1.00;;;;;;6150320;23;20600;-88
2023/04/28 02:03:57;;;;;;;5.13;3.93;;;5.50;1.00;;;;;;6149776;23;20163;-87
2023/04/28 02:06:23;;;;;;;6.07;3.90;;;5.50;1.00;;;;;;6151406;23;20164;-87
2023/04/28 02:08:48;;;;;;;7.17;4.07;;;5.50;1.00;;;;;;6151203;23;20164;-88
2023/04/28 02:11:14;;;;;;;6.20;4.30;;;5.60;1.00;;;;;;6149732;23;20217;-87
2023/04/28 02:13:39;;;;;;;4.53;3.87;;;5.60;1.00;;;;;;6149541;23;20179;-86
2023/04/28 02:16:05;;;;;;;4.10;3.63;;;5.60;1.00;;;;;;6150003;23;20190;-87
2023/04/28 02:18:31;;;;;;;5.70;4.10;;;5.60;1.00;;;;;;6149992;23;20160;-87
2023/04/28 02:20:56;;;;;;;6.33;4.20;;;5.60;1.00;;;;;;6149974;23;20166;-86
2023/04/28 02:23:22;;;;;;;6.67;4.07;;;5.60;1.00;;;;;;6149269;23;20195;-87
2023/04/28 02:25:47;;;;;;;5.17;3.80;;;5.60;1.00;;;;;;6151890;23;20160;-86
2023/04/28 02:28:13;;;;;;;8.23;4.23;;;5.60;1.00;;;;;;6150159;23;20190;-87
2023/04/28 02:30:39;;;;;;;5.03;3.83;;;5.60;1.00;;;;;;6150066;23;20167;-87
2023/04/28 02:33:04;;;;;;;6.57;3.93;;;5.60;1.00;;;;;;6149559;23;20183;-88
2023/04/28 02:35:30;;;;;;;6.47;3.90;;;5.60;1.00;;;;;;6149920;23;20207;-87
2023/04/28 02:37:55;;;;;;;6.13;3.80;;;5.60;1.00;;;;;;6149781;23;20168;-87
2023/04/28 02:40:21;;;;;;;6.77;3.90;;;5.70;1.00;;;;;;6150030;23;20242;-86
2023/04/28 02:42:46;;;;;;;7.17;3.90;;;5.70;1.00;;;;;;6149599;23;20202;-87
2023/04/28 02:45:12;;;;;;;5.70;4.00;;;5.70;1.00;;;;;;6150352;23;20164;-86
2023/04/28 02:47:38;;;;;;;4.87;3.90;;;5.70;1.00;;;;;;6149835;23;20168;-87
2023/04/28 02:50:03;;;;;;;8.33;3.77;;;5.80;1.00;;;;;;6149972;23;20246;-86
2023/04/28 02:52:29;;;;;;;3.93;3.40;;;5.80;1.00;;;;;;6149887;23;20190;-87
2023/04/28 02:54:56;;;;;;;4.47;3.60;;;5.90;1.00;;;;;;6150517;23;20183;-87
2023/04/28 02:57:23;;;;;;;4.90;3.70;;;5.90;1.00;;;;;;6149858;23;20167;-87
2023/04/28 02:59:48;;;;;;;5.07;4.00;;;5.90;1.00;;;;;;6150964;23;20148;-87
2023/04/28 03:02:14;;;;;;;6.37;3.93;;;5.90;1.00;;;;;;6148998;23;20179;-86
2023/04/28 03:04:40;;;;;;;5.70;3.50;;;5.90;1.00;;;;;;6174314;23;20194;-87
2023/04/28 03:07:06;;;;;;;4.37;3.97;;;6.00;1.00;;;;;;6149418;23;20156;-87
2023/04/28 03:09:31;;;;;;;6.47;3.63;;;6.00;1.00;;;;;;6148601;23;20160;-86
2023/04/28 03:11:57;;;;;;;5.83;4.10;;;5.90;1.00;;;;;;6149390;23;20523;-87
2023/04/28 03:14:22;;;;;;;5.03;3.80;;;6.00;1.00;;;;;;6149155;23;20174;-86
2023/04/28 03:16:48;;;;;;;5.83;3.90;;;6.00;1.00;;;;;;6149333;23;20242;-87
2023/04/28 03:19:13;;;;;;;5.50;4.13;;;6.00;1.00;;;;;;6148696;23;20218;-86
2023/04/28 03:21:39;;;;;;;6.20;4.23;;;6.10;1.00;;;;;;6148602;23;20257;-88
2023/04/28 03:24:05;;;;;;;6.73;3.83;;;6.00;1.00;;;;;;6149058;23;20243;-88
2023/04/28 03:26:31;;;;;;;8.87;4.00;;;6.00;1.00;;;;;;6148821;23;21064;-87
2023/04/28 03:28:56;;;;;;;6.33;3.67;;;6.10;1.00;;;;;;6148583;23;20295;-87
2023/04/28 03:31:23;;;;;;;4.80;3.90;;;6.00;1.00;;;;;;6148695;23;20171;-87
2023/04/28 03:33:48;;;;;;;6.60;3.70;;;6.10;1.00;;;;;;6150176;23;20159;-87
2023/04/28 03:36:14;;;;;;;7.03;3.97;;;6.10;1.00;;;;;;6148554;23;20187;-86
2023/04/28 03:38:39;;;;;;;6.47;4.37;;;6.10;1.00;;;;;;6148366;23;20166;-88
2023/04/28 03:41:05;;;;;;;7.20;4.20;;;6.10;1.00;;;;;;6149757;23;20654;-87
2023/04/28 03:43:32;;;;;;;7.10;4.13;;;6.20;1.00;;;;;;6152610;23;20668;-86
2023/04/28 03:45:57;;;;;;;5.70;4.13;;;6.20;1.00;;;;;;6150167;23;20183;-88
2023/04/28 03:48:23;;;;;;;4.83;3.87;;;6.20;1.00;;;;;;6151937;23;20164;-87
2023/04/28 03:50:48;;;;;;;5.77;3.53;;;6.20;1.00;;;;;;6148354;23;20160;-87
2023/04/28 03:53:14;;;;;;;5.77;4.33;;;6.20;1.00;;;;;;6150588;23;20182;-87
2023/04/28 03:55:39;;;;;;;7.50;3.60;;;6.10;1.00;;;;;;6149616;23;20183;-87
2023/04/28 03:58:05;;;;;;;6.97;3.90;;;6.10;1.00;;;;;;6150077;23;20158;-89
2023/04/28 04:00:30;;;;;;;6.27;4.07;;;6.10;1.00;;;;;;6151862;23;20164;-87
2023/04/28 04:02:56;;;;;;;5.80;3.83;;;6.10;1.00;;;;;;6148690;23;20179;-87
2023/04/28 04:05:21;;;;;;;5.37;4.00;;;6.10;1.00;;;;;;6148824;23;20635;-87
2023/04/28 04:07:47;;;;;;;8.03;4.60;;;6.50;1.00;;;;;;6149743;23;20619;-86
2023/04/28 04:10:12;;;;;;;5.73;3.67;;;6.10;1.00;;;;;;6149361;23;20160;-88
2023/04/28 04:12:38;;;;;;;6.23;4.43;;;6.00;1.00;;;;;;6148559;23;20189;-87
2023/04/28 04:15:04;;;;;;;6.13;4.20;;;6.00;1.00;;;;;;6148536;23;20271;-87
2023/04/28 04:17:30;;;;;;;6.63;4.20;;;6.00;1.00;;;;;;6148326;23;20466;-87
2023/04/28 04:19:56;;;;;;;6.40;4.70;;;5.90;1.00;;;;;;6148264;23;20159;-86
2023/04/28 04:22:21;;;;;;;8.50;4.80;;;5.90;1.00;;;;;;6150895;23;20190;-87
2023/04/28 04:24:47;;;;;;;7.20;4.63;;;5.90;1.00;;;;;;6147743;23;20172;-88
2023/04/28 04:27:13;;;;;;;7.60;4.63;;;5.80;1.00;;;;;;6148782;23;20166;-87
2023/04/28 04:29:38;;;;;;;8.30;4.60;;;5.80;1.00;;;;;;6150698;23;20164;-87
2023/04/28 04:32:04;;;;;;;7.80;4.70;;;5.80;1.00;;;;;;6148749;23;20206;-87
2023/04/28 04:34:30;;;;;;;8.17;4.80;;;5.90;1.00;;;;;;6148573;23;20469;-87
2023/04/28 04:36:55;;;;;;;6.00;4.53;;;5.80;1.00;;;;;;6150933;23;20182;-87
2023/04/28 04:39:21;;;;;;;7.83;4.90;;;5.80;1.00;;;;;;6149768;23;20187;-87
2023/04/28 04:41:46;;;;;;;8.30;5.10;;;5.90;1.00;;;;;;6148803;23;20532;-87
2023/04/28 04:44:12;;;;;;;6.97;4.40;;;5.90;1.00;;;;;;6123816;23;20604;-87
2023/04/28 04:46:37;;;;;;;6.73;4.67;;;5.90;1.00;;;;;;6149978;23;20188;-87
2023/04/28 04:49:03;;;;;;;6.30;4.87;;;6.00;1.00;;;;;;6123346;23;20162;-87
2023/04/28 04:51:31;;;;;;;6.47;4.80;;;6.10;1.00;;;;;;6123453;23;20167;-87
2023/04/28 04:53:57;;;;;;;5.33;4.83;;;6.30;1.00;;;;;;6123485;23;20238;-87
2023/04/28 04:56:22;;;;;;;6.17;4.90;;;6.50;1.00;;;;;;6123115;23;20211;-88
2023/04/28 04:58:51;;;;;;;6.17;5.07;;;6.70;1.00;;;;;;6123849;23;20156;-87
2023/04/28 05:01:17;;;;;;;8.40;4.40;;;6.90;1.00;;;;;;6125863;23;20167;-87
2023/04/28 05:03:42;;;;;;;8.27;4.73;;;7.20;1.00;;;;;;6123007;23;20179;-88
2023/04/28 05:06:09;;;;;;;9.70;5.57;;;7.30;1.00;;;;;;6122786;23;20229;-87
2023/04/28 05:08:34;;;;;;;7.10;4.80;;;7.30;1.00;;;;;;6121971;23;20159;-88
2023/04/28 05:11:00;;;;;;;7.57;5.20;;;7.60;1.00;;;;;;6122466;23;20159;-87
2023/04/28 05:13:25;;;;;;;10.87;5.17;;;8.60;1.00;;;;;;6122132;23;20190;-87
2023/04/28 05:15:51;;;;;;;7.73;5.60;;;7.80;1.00;;;;;;6122732;23;20667;-88
2023/04/28 05:18:17;;;;;;;6.13;4.70;;;8.10;1.00;;;;;;6122453;23;20234;-88
2023/04/28 05:20:42;;;;;;;7.03;4.97;;;9.70;1.00;;;;;;6122639;23;20167;-87
2023/04/28 05:23:09;;;;;;;7.00;4.80;;;8.80;1.00;;;;;;6122640;23;20187;-89
2023/04/28 05:25:35;;;;;;;9.00;4.77;;;8.90;1.00;;;;;;6122689;23;20274;-88
2023/04/28 05:28:06;;;;;;;7.00;4.97;;;8.60;1.00;;;;;;6122752;23;20211;-87
2023/04/28 05:30:32;;;;;;;6.40;5.70;;;8.30;1.00;;;;;;6148500;23;20223;-88
2023/04/28 05:32:58;;;;;;;8.13;5.63;;;8.00;1.00;;;;;;6122427;23;20234;-87
2023/04/28 05:35:24;;;;;;;6.77;5.33;;;7.80;1.00;;;;;;6123685;23;20179;-87
2023/04/28 05:37:50;;;;;;;10.80;6.07;;;7.60;1.00;;;;;;6124427;23;20170;-87
2023/04/28 05:40:16;;;;;;;7.43;5.47;;;7.60;1.00;;;;;;6124512;23;20214;-88
2023/04/28 05:42:41;;;;;;;6.10;5.33;;;7.60;1.00;;;;;;6141996;23;20198;-88
2023/04/28 05:45:07;;;;;;;9.67;5.67;;;7.50;1.00;;;;;;6149225;23;20788;-88
2023/04/28 05:47:33;;;;;;;10.00;5.87;;;7.80;1.00;;;;;;6148985;23;20215;-87
2023/04/28 05:49:59;;;;;;;8.10;6.07;;;7.70;1.00;;;;;;6148465;23;20167;-86
2023/04/28 05:52:24;;;;;;;13.53;6.27;;;7.80;1.00;;;;;;6148804;23;20179;-88
2023/04/28 05:55:14;;;;;;;9.20;5.90;;;7.80;1.00;;;;;;6148889;23;20670;-88
2023/04/28 05:57:40;;;;;;;9.30;5.97;;;7.70;1.00;;;;;;6148678;23;20156;-88
2023/04/28 06:00:06;;;;;;;9.40;6.07;;;7.80;1.00;;;;;;6153844;23;20183;-89
2023/04/28 06:02:31;;;;;;;9.73;6.13;;;7.80;1.00;;;;;;6148779;23;20184;-87
2023/04/28 06:04:57;;;;;;;9.53;6.10;;;7.90;1.00;;;;;;6148921;23;20191;-88
2023/04/28 06:07:22;;;;;;;9.10;6.90;;;7.90;1.00;;;;;;6149141;23;20500;-87
2023/04/28 06:09:48;;;;;;;11.50;6.80;;;8.00;1.00;;;;;;6149151;23;20163;-88
2023/04/28 06:12:14;;;;;;;10.43;6.70;;;8.00;1.00;;;;;;6149993;23;20183;-87
2023/04/28 06:14:56;;;;;;;12.93;6.63;;;8.00;1.00;;;;;;6150595;23;20250;-89
2023/04/28 06:17:23;;;;;;;12.10;6.80;;;8.10;1.00;;;;;;6150642;23;20174;-88
2023/04/28 06:19:52;;;;;;;10.97;6.60;;;8.10;1.00;;;;;;6149652;23;20152;-88
2023/04/28 06:22:17;;;;;;;10.57;7.07;;;8.10;1.00;;;;;;6149300;23;20569;-88
2023/04/28 06:24:44;;;;;;;12.70;7.40;;;8.10;1.00;;;;;;6149464;23;20202;-88
2023/04/28 06:27:12;;;;;;;10.70;7.27;;;8.20;1.00;;;;;;6149128;23;20194;-87
2023/04/28 06:29:38;;;;;;;8.97;6.87;;;8.20;1.00;;;;;;6148524;23;20224;-87
2023/04/28 06:32:04;;;;;;;10.13;7.13;;;8.20;1.00;;;;;;6148624;23;20183;-86
2023/04/28 06:34:30;;;;;;;7.63;6.40;;;8.20;1.00;;;;;;6150210;23;20237;-88
2023/04/28 06:36:57;;;;;;;8.23;6.77;;;8.30;1.00;;;;;;6149997;23;20179;-87
2023/04/28 06:39:26;;;;;;;10.73;7.07;;;8.30;1.00;;;;;;6149860;23;20170;-88
2023/04/28 06:41:52;;;;;;;8.00;6.70;;;8.30;1.00;;;;;;6150332;23;20319;-88
2023/04/28 06:44:18;;;;;;;9.60;7.07;;;8.30;1.00;;;;;;6147935;23;20200;-88
2023/04/28 06:46:44;;;;;;;10.03;7.30;;;8.40;1.00;;;;;;6145773;23;20688;-87
2023/04/28 06:49:10;;;;;;;10.73;7.57;;;8.90;1.00;;;;;;6149243;23;20190;-88
2023/04/28 06:51:35;;;;;;;9.33;7.20;;;8.60;1.00;;;;;;6147873;23;20187;-87
2023/04/28 06:54:01;;;;;;;11.10;7.50;;;8.60;1.00;;;;;;6148594;23;20250;-89
2023/04/28 06:56:27;;;;;;;8.63;7.40;;;8.70;1.00;;;;;;6148723;23;20230;-88
2023/04/28 06:58:55;;;;;;;8.30;7.43;;;8.80;1.00;;;;;;6156278;23;20230;-87
2023/04/28 07:01:20;;;;;;;11.83;7.17;;;8.90;1.00;;;;;;6151132;23;20159;-87
2023/04/28 07:03:46;;;;;;;9.93;7.70;;;9.00;1.00;;;;;;6149831;23;20892;-87
2023/04/28 07:06:12;;;;;;;13.53;7.57;;;9.00;1.00;;;;;;6149478;23;20175;-88
2023/04/28 07:08:38;;;;;;;12.73;7.67;;;9.10;1.00;;;;;;6150363;23;20168;-87
2023/04/28 07:11:05;;;;;;;8.57;7.20;;;9.20;1.00;;;;;;6149351;23;20255;-87
2023/04/28 07:13:31;;;;;;;10.00;7.87;;;9.20;1.00;;;;;;6148420;23;20183;-87
2023/04/28 07:15:56;;;;;;;10.00;8.00;;;9.20;1.00;;;;;;6147550;23;20194;-89
2023/04/28 07:18:22;;;;;;;10.37;7.93;;;9.40;1.00;;;;;;6148657;23;20160;-88
2023/04/28 07:20:48;;;;;;;9.70;7.33;;;9.50;1.00;;;;;;6146773;23;20164;-88
2023/04/28 07:23:15;;;;;;;14.23;7.80;;;9.60;1.00;;;;;;6146993;23;20171;-86
2023/04/28 07:25:40;;;;;;;9.73;8.30;;;9.90;1.00;;;;;;6147058;23;20171;-89
2023/04/28 07:28:06;;;;;;;8.80;7.20;;;9.90;1.00;;;;;;6146937;23;20151;-87
2023/04/28 07:30:33;;;;;;;10.07;7.53;;;9.80;1.00;;;;;;6147118;23;20156;-87
2023/04/28 07:33:02;;;;;;;11.63;8.23;;;10.00;1.00;;;;;;6148237;23;20175;-87
2023/04/28 07:35:27;;;;;;;9.80;8.50;;;9.80;1.00;;;;;;6146990;23;20199;-88
2023/04/28 07:37:54;;;;;;;10.77;7.63;;;9.90;1.00;;;;;;6148969;23;20600;-87
2023/04/28 07:40:23;;;;;;;11.37;7.70;;;10.00;1.00;;;;;;6147796;23;20226;-87
2023/04/28 07:42:50;;;;;;;12.17;7.80;;;10.60;1.00;;;;;;6171263;23;20648;-89
2023/04/28 07:45:16;;;;;;;8.60;7.07;;;10.00;1.00;;;;;;6149422;23;20147;-87
2023/04/28 07:47:42;;;;;;;11.43;8.10;;;10.20;1.00;;;;;;6145214;23;20524;-86
2023/04/28 07:50:08;;;;;;;9.07;7.83;;;10.30;1.00;;;;;;6143506;23;20175;-87
2023/04/28 07:52:34;;;;;;;10.53;7.47;;;10.40;1.00;;;;;;6142875;23;20184;-88
2023/04/28 07:55:01;;;;;;;8.83;7.73;;;10.30;1.00;;;;;;6143396;23;20561;-87
2023/04/28 07:57:28;;;;;;;10.70;7.97;;;10.30;1.00;;;;;;6143343;23;20171;-86
2023/04/28 07:59:53;;;;;;;9.67;7.70;;;10.30;1.00;;;;;;6142944;23;20167;-86
2023/04/28 08:02:19;;;;;;;9.47;7.73;;;10.40;1.00;;;;;;6143328;23;20183;-87
2023/04/28 08:04:45;;;;;;;9.27;7.57;;;10.50;1.00;;;;;;6143355;23;20163;-86
2023/04/28 08:07:11;;;;;;;12.60;7.83;;;10.50;1.00;;;;;;6143100;23;20213;-86
2023/04/28 08:09:38;;;;;;;9.80;7.90;;;10.60;1.00;;;;;;6144721;23;20472;-87
2023/04/28 08:12:04;;;;;;;8.40;7.53;;;10.60;1.00;;;;;;6144577;23;20699;-88
2023/04/28 08:14:30;;;;;;;9.67;7.83;;;10.70;1.00;;;;;;6149086;23;20206;-86
2023/04/28 08:16:56;;;;;;;9.33;7.63;;;10.90;1.00;;;;;;6148606;23;20218;-87
2023/04/28 08:19:22;;;;;;;10.00;7.87;;;10.90;1.00;;;;;;6148336;23;20211;-86
2023/04/28 08:21:48;;;;;;;10.43;7.67;;;11.00;1.00;;;;;;6142254;23;20183;-89
2023/04/28 08:24:14;;;;;;;10.10;7.37;;;11.00;1.00;;;;;;6143602;23;20198;-88
2023/04/28 08:26:39;;;;;;;9.00;7.50;;;11.10;1.00;;;;;;6145124;23;20736;-87
2023/04/28 08:29:05;;;;;;;12.75;7.93;;;11.10;1.00;;;;;;6144233;23;20616;-87
2023/04/28 08:31:31;;;;;;;12.23;8.07;;;11.20;1.00;;;;;;6146193;23;20247;-88
2023/04/28 08:33:56;;;;;;;9.93;7.50;;;11.20;1.00;;;;;;6149438;23;20155;-89
2023/04/28 08:36:24;;;;;;;9.90;7.10;;;11.50;1.00;;;;;;6146672;23;20269;-89
2023/04/28 08:38:49;;;;;;;8.38;7.50;;;11.60;1.00;;;;;;6147418;23;20163;-90
2023/04/28 08:41:16;;;;;;;10.75;7.78;;;11.70;1.00;;;;;;6147979;23;20254;-89
2023/04/28 08:43:42;;;;;;;10.93;8.57;;;11.80;1.00;;;;;;6148972;23;20525;-89
2023/04/28 08:46:08;;;;;;;10.15;7.80;;;12.10;1.00;;;;;;6149548;23;20163;-89
2023/04/28 08:48:43;;;;;;;9.88;8.13;;;12.10;1.00;;;;;;6172677;23;20164;-89
2023/04/28 08:51:15;;;;;;;9.50;7.43;;;12.30;1.00;;;;;;6148968;23;20159;-90
2023/04/28 08:53:47;;;;;;;11.38;8.25;;;12.30;1.00;;;;;;6152979;23;20199;-90
2023/04/28 08:56:15;;;;;;;9.20;8.00;;;12.30;1.00;;;;;;6148008;23;20183;-89
2023/04/28 08:58:41;;;;;;;7.68;6.97;;;12.60;1.00;;;;;;6150966;23;20159;-89
2023/04/28 09:01:07;;;;;;;9.32;7.10;;;12.90;1.00;;;;;;6149707;23;20183;-89
2023/04/28 09:03:33;;;;;;;8.80;7.10;;;12.90;1.00;;;;;;6149600;23;20650;-89
2023/04/28 09:06:00;;;;;;;9.20;7.32;;;13.00;1.00;;;;;;6150059;23;20243;-88
2023/04/28 09:08:27;;;;;;;9.82;7.82;;;13.00;1.00;;;;;;6151565;23;20750;-90
2023/04/28 09:11:09;;;;;;;11.82;7.30;;;13.00;1.00;;;;;;6151259;23;20163;-90
2023/04/28 09:13:35;;;;;;;9.40;8.20;;;12.80;1.00;;;;;;6150192;23;20385;-89
2023/04/28 09:16:02;;;;;;;8.90;7.88;;;13.10;1.00;;;;;;6150867;23;20206;-89
2023/04/28 09:18:32;;;;;;;9.80;7.60;;;13.10;1.00;;;;;;6149417;23;20471;-88
2023/04/28 09:21:04;;;;;;;9.63;7.53;;;12.90;1.00;;;;;;6145832;23;20167;-89
2023/04/28 09:23:30;;;;;;;10.57;8.85;;;12.80;1.00;;;;;;6144119;23;20175;-88
2023/04/28 09:25:58;;;;;;;10.43;8.00;;;12.90;1.00;;;;;;6144170;23;20497;-88
2023/04/28 09:28:23;;;;;;;12.40;7.85;;;13.00;1.00;;;;;;6146328;23;20178;-89
2023/04/28 09:30:49;;;;;;;11.15;8.05;;;13.00;1.00;;;;;;6147701;23;20155;-89
2023/04/28 09:33:15;;;;;;;10.57;7.40;;;13.20;1.00;;;;;;6148286;23;20230;-88
2023/04/28 09:35:47;;;;;;;8.82;7.80;;;13.30;1.00;;;;;;6151975;23;20184;-90
2023/04/28 09:38:13;;;;;;;8.23;7.38;;;13.50;1.00;;;;;;6152190;23;20179;-90
2023/04/28 09:40:54;;;;;;;12.13;8.77;;;13.60;1.00;;;;;;6149843;23;20381;-91
2023/04/28 09:43:34;;;;;;;11.07;8.10;;;13.50;1.00;;;;;;6150689;23;20415;-89
2023/04/28 09:46:02;;;;;;;11.38;7.80;;;13.70;1.00;;;;;;6145481;23;20191;-88
2023/04/28 09:48:32;;;;;;;11.85;8.10;;;13.50;1.00;;;;;;6145579;23;20191;-90
2023/04/28 09:51:03;;;;;;;9.10;8.02;;;13.80;1.00;;;;;;6145918;23;20507;-90
2023/04/28 09:53:32;;;;;;;10.93;8.23;;;14.00;1.00;;;;;;6146255;23;20647;-90
2023/04/28 09:55:59;;;;;;;10.10;8.10;;;13.90;1.00;;;;;;6146079;23;20262;-91
2023/04/28 09:58:26;;;;;;;10.55;8.80;;;13.80;1.00;;;;;;6145220;23;20163;-90
2023/04/28 10:00:58;;;;;;;10.85;8.18;;;13.30;1.00;;;;;;6149583;23;20167;-91
2023/04/28 10:03:25;;;;;;;11.60;8.77;;;13.40;1.00;;;;;;6147615;23;20186;-91
2023/04/28 10:05:53;;;;;;;8.85;7.95;;;13.50;1.00;;;;;;6149630;23;20167;-89
2023/04/28 10:08:23;;;;;;;11.27;8.55;;;13.40;1.00;;;;;;6149687;23;20172;-91
2023/04/28 10:10:51;;;;;;;9.68;8.45;;;13.50;1.00;;;;;;6153342;23;20508;-90
2023/04/28 10:13:18;;;;;;;10.68;8.50;;;13.20;1.00;;;;;;6149581;23;20180;-88
2023/04/28 10:15:45;;;;;;;11.27;8.45;;;13.40;1.00;;;;;;6147760;23;20184;-89
2023/04/28 10:18:13;;;;;;;10.43;8.38;;;13.40;1.00;;;;;;6147937;23;20160;-90
2023/04/28 10:20:45;;;;;;;11.57;8.95;;;13.40;1.00;;;;;;6152674;23;20164;-92
2023/04/28 10:23:30;;;;;;;9.30;8.35;;;13.70;1.00;;;;;;6148938;23;20203;-90
2023/04/28 10:25:58;;;;;;;12.18;8.57;;;13.40;1.00;;;;;;6151464;23;20198;-90
2023/04/28 10:28:25;;;;;;;9.25;8.25;;;13.50;1.00;;;;;;6149131;23;20612;-89
2023/04/28 10:31:11;;;;;;;9.40;8.27;;;13.40;1.00;;;;;;6150972;23;20184;-90
2023/04/28 10:33:38;;;;;;;9.65;8.38;;;13.40;1.00;;;;;;6154491;23;20179;-89
2023/04/28 10:36:05;;;;;;;10.27;8.30;;;13.40;1.00;;;;;;6150774;23;20179;-88
2023/04/28 10:38:31;;;;;;;10.52;8.73;;;13.30;1.00;;;;;;6154723;23;20155;-87
2023/04/28 10:41:01;;;;;;;12.15;8.73;;;13.80;1.00;;;;;;6155018;23;20548;-90
2023/04/28 10:43:35;;;;;;;9.40;8.25;;;13.30;1.00;;;;;;6153734;23;20180;-89
2023/04/28 10:46:05;;;;;;;9.40;8.43;;;13.40;1.00;;;;;;6149597;23;20243;-88
2023/04/28 10:49:00;;;;;;;10.40;8.85;;;13.20;1.00;;;;;;6151826;23;20160;-89
2023/04/28 10:51:28;;;;;;;11.18;9.05;;;13.20;1.00;;;;;;6145553;23;20170;-87
2023/04/28 10:53:56;;;;;;;10.38;8.60;;;13.80;1.00;;;;;;6146742;23;20160;-87
2023/04/28 10:56:26;;;;;;;11.40;9.13;;;13.40;1.00;;;;;;6151600;23;20211;-87
2023/04/28 10:58:53;;;;;;;10.63;8.68;;;13.20;1.00;;;;;;6153129;23;20593;-87
2023/04/28 11:01:25;;;;;;;10.35;9.05;;;13.10;1.00;;;;;;6152697;23;20251;-86
2023/04/28 11:04:12;;;;;;;10.20;8.32;;;13.10;1.00;;;;;;6156619;23;20148;-87
2023/04/28 11:07:13;;;;;;;11.70;9.32;;;13.20;1.00;;;;;;6155803;23;20155;-86
2023/04/28 11:09:40;;;;;;;10.13;8.50;;;13.40;1.00;;;;;;6156265;23;20568;-87
2023/04/28 11:12:09;;;;;;;9.40;8.43;;;13.40;1.00;;;;;;6154651;23;20575;-87
2023/04/28 11:14:36;;;;;;;13.00;8.82;;;13.50;1.00;;;;;;6166073;23;20156;-88
2023/04/28 11:17:04;;;;;;;12.55;8.63;;;13.40;1.00;;;;;;6158348;23;20628;-88
2023/04/28 11:19:30;;;;;;;12.88;8.65;;;13.20;1.00;;;;;;6151922;23;20159;-87
2023/04/28 11:21:57;;;;;;;11.93;9.23;;;13.30;1.00;;;;;;6151416;23;20883;-87
2023/04/28 11:24:25;;;;;;;14.10;9.13;;;14.00;1.00;;;;;;6164282;23;20183;-87
2023/04/28 11:26:51;;;;;;;11.73;8.98;;;13.90;1.00;;;;;;6173013;23;20175;-88
2023/04/28 11:29:17;;;;;;;12.20;9.35;;;13.40;1.00;;;;;;6178332;23;20202;-87
2023/04/28 11:31:50;;;;;;;10.70;9.43;;;13.20;1.00;;;;;;6171826;23;20453;-87
2023/04/28 11:34:19;;;;;;;12.93;9.65;;;13.10;1.00;;;;;;6171635;23;20154;-87
2023/04/28 11:36:45;;;;;;;10.23;8.65;;;12.90;1.00;;;;;;6170896;23;20203;-88
2023/04/28 11:39:11;;;;;;;13.20;9.88;;;12.80;1.00;;;;;;6171839;23;20217;-87
2023/04/28 11:41:43;;;;;;;11.65;9.30;;;12.80;1.00;;;;;;6171552;23;20225;-87
2023/04/28 11:44:59;;;;;;;12.25;9.43;;;12.80;1.00;;;;;;6149668;23;20152;-86
2023/04/28 11:47:32;;;;;;;10.98;9.43;;;12.80;1.00;;;;;;6146760;23;20175;-87
2023/04/28 11:50:00;;;;;;;11.63;9.38;;;12.90;1.00;;;;;;6145226;23;20166;-87
2023/04/28 11:52:26;;;;;;;9.73;8.73;;;13.10;1.00;;;;;;6148189;23;20179;-87
2023/04/28 11:55:00;;;;;;;9.65;8.75;;;13.40;1.00;;;;;;6149893;23;20193;-86
2023/04/28 11:57:27;;;;;;;10.13;9.13;;;13.40;1.00;;;;;;6148586;23;20150;-87
2023/04/28 11:59:52;;;;;;;9.15;8.25;;;13.30;1.00;;;;;;6140313;23;20227;-88
2023/04/28 12:02:28;;;;;;;11.23;9.50;;;13.30;1.00;;;;;;6141534;23;20243;-90
2023/04/28 12:04:53;;;;;;;13.15;9.63;;;13.40;1.00;;;;;;6141881;23;20170;-88
2023/04/28 12:07:19;;;;;;;11.05;9.40;;;13.30;1.00;;;;;;6140609;23;20160;-88
2023/04/28 12:10:12;;;;;;;15.95;9.73;;;13.30;1.00;;;;;;6141105;23;20186;-90
2023/04/28 12:12:38;;;;;;;10.95;9.52;;;13.30;1.00;;;;;;6166983;23;20174;-88
2023/04/28 12:15:05;;;;;;;12.32;9.27;;;13.40;1.00;;;;;;6139794;23;20144;-89
2023/04/28 12:17:40;;;;;;;10.75;9.65;;;13.40;1.00;;;;;;6165450;23;20162;-89
2023/04/28 12:20:08;;;;;;;12.60;9.73;;;13.60;1.00;;;;;;6143723;23;20430;-87
2023/04/28 12:22:49;;;;;;;13.02;10.38;;;13.60;1.00;;;;;;6142349;23;20180;-86
2023/04/28 12:25:18;;;;;;;12.43;10.23;;;13.60;1.00;;;;;;6145671;23;20148;-86
2023/04/28 12:28:03;;;;;;;12.93;10.32;;;13.60;1.00;;;;;;6171641;23;20207;-86
2023/04/28 12:30:40;;;;;;;10.73;9.63;;;13.50;1.00;;;;;;6172742;23;20128;-86
2023/04/28 12:33:24;;;;;;;12.85;10.45;;;13.50;1.00;;;;;;6169843;23;20171;-85
2023/04/28 12:35:49;;;;;;;13.18;11.05;;;13.60;1.00;;;;;;6166538;23;20448;-86
2023/04/28 12:38:15;;;;;;;12.88;10.55;;;13.80;1.00;;;;;;6142716;23;20167;-85
2023/04/28 12:40:41;;;;;;;11.50;10.40;;;13.70;1.00;;;;;;6142381;23;20165;-86
2023/04/28 12:43:08;;;;;;;14.00;11.23;;;13.50;1.00;;;;;;6164786;23;20195;-86
2023/04/28 12:45:34;;;;;;;13.40;10.98;;;13.50;1.00;;;;;;6153510;23;20635;-85
2023/04/28 12:48:00;;;;;;;12.93;11.07;;;13.80;1.00;;;;;;6148205;23;20206;-85
2023/04/28 12:50:26;;;;;;;12.55;10.18;;;13.80;1.00;;;;;;6149897;23;20168;-85
2023/04/28 12:52:52;;;;;;;10.73;9.63;;;13.80;1.00;;;;;;6152601;23;20172;-85
2023/04/28 12:55:17;;;;;;;13.50;10.35;;;13.70;1.00;;;;;;6150761;23;20194;-86
2023/04/28 12:57:45;;;;;;;11.45;10.15;;;13.70;1.00;;;;;;6151630;23;20238;-85
2023/04/28 13:00:15;;;;;;;12.70;10.75;;;13.70;1.00;;;;;;6150617;23;20155;-85